ELY364 LOWW-LLBG
Flight info
| Callsign | ELY364 |
|---|---|
| Flight time | 3h 1m |
| Altitude | 35000 |
| Route | ADAMA2C/29 ADAMA Z648 VEDER DCT ALAMU DCT EPARI DCT EBORO DCT PARAK DCT OBLAK DCT NISVA DCT RODIP DCT BELGI UN131 KULAR UT39 TOMBI DCT IDAKU L35 PIKOG L609 ZUKKO |
| Aircraft | B738/M-SDE2E3FGHIJ1LORVWXY/LB1 |
Departure
| Time | 2026-05-07 19:12 |
|---|---|
| Airport | Vienna International Airport (LOWW) |
Arrival
| Time | 2026-05-07 22:13 |
|---|---|
| Airport | Ben Gurion International Airport (LLBG) |
| Time | Latitude | Longitude | Altitude | Speed | Heading |
|---|---|---|---|---|---|
| 2026-05-07 18:43 | 48.11899 | 16.56020 | 582 ft | 0 kts | 160° |
| 2026-05-07 19:02 | 48.11901 | 16.56019 | 609 ft | 2 kts | 159° |
| 2026-05-07 19:02 | 48.11912 | 16.56009 | 623 ft | 3 kts | 110° |
| 2026-05-07 19:02 | 48.11918 | 16.55980 | 623 ft | 3 kts | 114° |
| 2026-05-07 19:02 | 48.11927 | 16.55956 | 625 ft | 3 kts | 131° |
| 2026-05-07 19:03 | 48.11940 | 16.55941 | 625 ft | 3 kts | 174° |
| 2026-05-07 19:03 | 48.11957 | 16.55945 | 613 ft | 3 kts | 208° |
| 2026-05-07 19:03 | 48.11971 | 16.55956 | 625 ft | 1 kts | 206° |
| 2026-05-07 19:03 | 48.11972 | 16.55957 | 625 ft | 2 kts | 206° |
| 2026-05-07 19:07 | 48.11957 | 16.55947 | 613 ft | 5 kts | 204° |
| 2026-05-07 19:07 | 48.11908 | 16.55910 | 625 ft | 10 kts | 206° |
| 2026-05-07 19:07 | 48.11833 | 16.55855 | 617 ft | 14 kts | 205° |
| 2026-05-07 19:07 | 48.11746 | 16.55793 | 613 ft | 14 kts | 205° |
| 2026-05-07 19:08 | 48.11674 | 16.55847 | 612 ft | 13 kts | 116° |
| 2026-05-07 19:08 | 48.11634 | 16.55968 | 613 ft | 14 kts | 116° |
| 2026-05-07 19:08 | 48.11589 | 16.56107 | 614 ft | 17 kts | 116° |
| 2026-05-07 19:08 | 48.11533 | 16.56278 | 612 ft | 20 kts | 116° |
| 2026-05-07 19:09 | 48.11468 | 16.56479 | 614 ft | 23 kts | 116° |
| 2026-05-07 19:09 | 48.11398 | 16.56692 | 620 ft | 23 kts | 116° |
| 2026-05-07 19:09 | 48.11330 | 16.56900 | 609 ft | 22 kts | 116° |
| 2026-05-07 19:09 | 48.11264 | 16.57102 | 617 ft | 21 kts | 116° |
| 2026-05-07 19:10 | 48.11218 | 16.57242 | 611 ft | 11 kts | 118° |
| 2026-05-07 19:10 | 48.11178 | 16.57365 | 615 ft | 17 kts | 115° |
| 2026-05-07 19:10 | 48.11112 | 16.57523 | 614 ft | 16 kts | 154° |
| 2026-05-07 19:10 | 48.11008 | 16.57476 | 619 ft | 16 kts | 206° |
| 2026-05-07 19:11 | 48.10967 | 16.57374 | 614 ft | 9 kts | 288° |
| 2026-05-07 19:11 | 48.10993 | 16.57293 | 612 ft | 11 kts | 296° |
| 2026-05-07 19:11 | 48.11102 | 16.56960 | 615 ft | 70 kts | 296° |
| 2026-05-07 19:11 | 48.11418 | 16.55988 | 614 ft | 135 kts | 295° |
| 2026-05-07 19:12 | 48.11915 | 16.54522 | 791 ft | 171 kts | 296° |
| 2026-05-07 19:12 | 48.12430 | 16.52872 | 1463 ft | 179 kts | 278° |
| 2026-05-07 19:12 | 48.12199 | 16.51029 | 2095 ft | 189 kts | 235° |
| 2026-05-07 19:12 | 48.11141 | 16.49815 | 2741 ft | 202 kts | 210° |
| 2026-05-07 19:13 | 48.09854 | 16.48841 | 3251 ft | 209 kts | 207° |
| 2026-05-07 19:13 | 48.08517 | 16.47966 | 3774 ft | 218 kts | 204° |
| 2026-05-07 19:13 | 48.07104 | 16.47304 | 4645 ft | 203 kts | 189° |
| 2026-05-07 19:13 | 48.05652 | 16.47433 | 5043 ft | 226 kts | 172° |
| 2026-05-07 19:14 | 48.04094 | 16.47855 | 5594 ft | 222 kts | 161° |
| 2026-05-07 19:14 | 48.02822 | 16.49095 | 6157 ft | 229 kts | 127° |
| 2026-05-07 19:14 | 48.02270 | 16.51415 | 6222 ft | 250 kts | 93° |
| 2026-05-07 19:14 | 48.02162 | 16.54029 | 6545 ft | 254 kts | 92° |
| 2026-05-07 19:15 | 48.02056 | 16.56700 | 7052 ft | 257 kts | 92° |
| 2026-05-07 19:15 | 48.01953 | 16.59380 | 7646 ft | 259 kts | 92° |
| 2026-05-07 19:15 | 48.01848 | 16.62086 | 8211 ft | 262 kts | 92° |
| 2026-05-07 19:15 | 48.01740 | 16.64874 | 8543 ft | 279 kts | 92° |
| 2026-05-07 19:16 | 48.01624 | 16.67831 | 9125 ft | 289 kts | 92° |
| 2026-05-07 19:16 | 48.01505 | 16.70833 | 9906 ft | 291 kts | 92° |
| 2026-05-07 19:16 | 48.01382 | 16.73900 | 10450 ft | 303 kts | 92° |
| 2026-05-07 19:16 | 48.01252 | 16.77131 | 10619 ft | 327 kts | 92° |
| 2026-05-07 19:17 | 48.01110 | 16.80641 | 10841 ft | 348 kts | 92° |
| 2026-05-07 19:17 | 48.00960 | 16.84308 | 11347 ft | 357 kts | 93° |
| 2026-05-07 19:17 | 48.00805 | 16.88042 | 12030 ft | 362 kts | 93° |
| 2026-05-07 19:17 | 48.00647 | 16.91806 | 12738 ft | 365 kts | 93° |
| 2026-05-07 19:18 | 48.00486 | 16.95621 | 13409 ft | 370 kts | 94° |
| 2026-05-07 19:18 | 48.00323 | 16.99477 | 14054 ft | 374 kts | 94° |
| 2026-05-07 19:18 | 48.00156 | 17.03366 | 14698 ft | 376 kts | 94° |
| 2026-05-07 19:18 | 47.99978 | 17.07279 | 15369 ft | 378 kts | 97° |
| 2026-05-07 19:19 | 47.99376 | 17.11003 | 16210 ft | 372 kts | 114° |
| 2026-05-07 19:19 | 47.98113 | 17.14346 | 16912 ft | 371 kts | 129° |
| 2026-05-07 19:19 | 47.96439 | 17.17283 | 17524 ft | 373 kts | 133° |
| 2026-05-07 19:19 | 47.95300 | 17.19202 | 17906 ft | 376 kts | 134° |
| 2026-05-07 19:20 | 47.93551 | 17.22136 | 18469 ft | 380 kts | 134° |
| 2026-05-07 19:20 | 47.91789 | 17.25095 | 19016 ft | 382 kts | 134° |
| 2026-05-07 19:20 | 47.90026 | 17.28070 | 19579 ft | 384 kts | 134° |
| 2026-05-07 19:20 | 47.88251 | 17.31076 | 20136 ft | 387 kts | 134° |
| 2026-05-07 19:21 | 47.86468 | 17.34102 | 20676 ft | 389 kts | 135° |
| 2026-05-07 19:21 | 47.84685 | 17.37131 | 21215 ft | 392 kts | 135° |
| 2026-05-07 19:21 | 47.82883 | 17.40194 | 21745 ft | 394 kts | 135° |
| 2026-05-07 19:21 | 47.81069 | 17.43276 | 22269 ft | 396 kts | 135° |
| 2026-05-07 19:22 | 47.79251 | 17.46361 | 22781 ft | 398 kts | 135° |
| 2026-05-07 19:22 | 47.77415 | 17.49476 | 23291 ft | 401 kts | 136° |
| 2026-05-07 19:22 | 47.75580 | 17.52584 | 23752 ft | 403 kts | 136° |
| 2026-05-07 19:22 | 47.73915 | 17.55401 | 24111 ft | 405 kts | 136° |
| 2026-05-07 19:23 | 47.72176 | 17.58341 | 24492 ft | 406 kts | 136° |
| 2026-05-07 19:23 | 47.70387 | 17.61360 | 24848 ft | 409 kts | 136° |
| 2026-05-07 19:23 | 47.68511 | 17.64525 | 25237 ft | 411 kts | 136° |
| 2026-05-07 19:23 | 47.66711 | 17.67555 | 25592 ft | 413 kts | 137° |
| 2026-05-07 19:24 | 47.64992 | 17.70448 | 25924 ft | 415 kts | 137° |
| 2026-05-07 19:24 | 47.63500 | 17.72956 | 26204 ft | 417 kts | 137° |
| 2026-05-07 19:24 | 47.61863 | 17.75705 | 26506 ft | 419 kts | 137° |
| 2026-05-07 19:24 | 47.60224 | 17.78456 | 26811 ft | 420 kts | 137° |
| 2026-05-07 19:25 | 47.58292 | 17.81692 | 27154 ft | 422 kts | 137° |
| 2026-05-07 19:25 | 47.56515 | 17.84666 | 27454 ft | 425 kts | 137° |
| 2026-05-07 19:25 | 47.54632 | 17.87814 | 27761 ft | 427 kts | 137° |
| 2026-05-07 19:25 | 47.53363 | 17.89933 | 27974 ft | 428 kts | 137° |
| 2026-05-07 19:26 | 47.52053 | 17.92121 | 28189 ft | 430 kts | 137° |
| 2026-05-07 19:26 | 47.50610 | 17.94526 | 28412 ft | 431 kts | 137° |
| 2026-05-07 19:26 | 47.48798 | 17.97545 | 28696 ft | 433 kts | 137° |
| 2026-05-07 19:26 | 47.46992 | 18.00551 | 28989 ft | 435 kts | 137° |
| 2026-05-07 19:27 | 47.45220 | 18.03496 | 29267 ft | 436 kts | 138° |
| 2026-05-07 19:27 | 47.43207 | 18.06838 | 29572 ft | 438 kts | 138° |
| 2026-05-07 19:27 | 47.41176 | 18.10205 | 29859 ft | 440 kts | 138° |
| 2026-05-07 19:27 | 47.39132 | 18.13588 | 30141 ft | 442 kts | 138° |
| 2026-05-07 19:28 | 47.37157 | 18.16855 | 30355 ft | 443 kts | 138° |
| 2026-05-07 19:28 | 47.36441 | 18.18038 | 30433 ft | 444 kts | 138° |
| 2026-05-07 19:28 | 47.34394 | 18.21418 | 30686 ft | 445 kts | 138° |
| 2026-05-07 19:28 | 47.32386 | 18.24732 | 30976 ft | 444 kts | 138° |
| 2026-05-07 19:29 | 47.30302 | 18.28165 | 31273 ft | 444 kts | 138° |
| 2026-05-07 19:29 | 47.28244 | 18.31551 | 31513 ft | 446 kts | 138° |
| 2026-05-07 19:29 | 47.26169 | 18.34960 | 31745 ft | 446 kts | 138° |
| 2026-05-07 19:29 | 47.24201 | 18.38189 | 32008 ft | 447 kts | 138° |
| 2026-05-07 19:30 | 47.22692 | 18.40663 | 32220 ft | 447 kts | 139° |
| 2026-05-07 19:30 | 47.21244 | 18.43033 | 32372 ft | 448 kts | 139° |
| 2026-05-07 19:30 | 47.19834 | 18.45341 | 32511 ft | 449 kts | 139° |
| 2026-05-07 19:30 | 47.18124 | 18.48134 | 32721 ft | 449 kts | 139° |
| 2026-05-07 19:31 | 47.16038 | 18.51542 | 33001 ft | 449 kts | 139° |
| 2026-05-07 19:31 | 47.13947 | 18.54951 | 33209 ft | 450 kts | 139° |
| 2026-05-07 19:31 | 47.11844 | 18.58375 | 33432 ft | 451 kts | 139° |
| 2026-05-07 19:31 | 47.09740 | 18.61796 | 33644 ft | 452 kts | 139° |
| 2026-05-07 19:32 | 47.07629 | 18.65224 | 33859 ft | 453 kts | 139° |
| 2026-05-07 19:32 | 47.05513 | 18.68657 | 34049 ft | 454 kts | 139° |
| 2026-05-07 19:32 | 47.03395 | 18.72087 | 34204 ft | 456 kts | 139° |
| 2026-05-07 19:32 | 47.01410 | 18.75299 | 34356 ft | 457 kts | 139° |
| 2026-05-07 19:33 | 46.99435 | 18.78492 | 34544 ft | 457 kts | 139° |
| 2026-05-07 19:33 | 46.97472 | 18.81663 | 34734 ft | 456 kts | 139° |
| 2026-05-07 19:33 | 46.95550 | 18.84764 | 34901 ft | 457 kts | 139° |
| 2026-05-07 19:33 | 46.93754 | 18.87657 | 35016 ft | 458 kts | 139° |
| 2026-05-07 19:34 | 46.89718 | 18.94141 | 35019 ft | 464 kts | 139° |
| 2026-05-07 19:34 | 46.85351 | 19.01140 | 35037 ft | 471 kts | 138° |
| 2026-05-07 19:35 | 46.80906 | 19.08250 | 35012 ft | 475 kts | 138° |
| 2026-05-07 19:35 | 46.77099 | 19.14330 | 35020 ft | 476 kts | 138° |
| 2026-05-07 19:36 | 46.74365 | 19.18689 | 35014 ft | 477 kts | 138° |
| 2026-05-07 19:36 | 46.71669 | 19.22982 | 35015 ft | 477 kts | 138° |
| 2026-05-07 19:37 | 46.68854 | 19.27452 | 35007 ft | 477 kts | 138° |
| 2026-05-07 19:37 | 46.65964 | 19.32032 | 35009 ft | 477 kts | 138° |
| 2026-05-07 19:38 | 46.63300 | 19.36246 | 35014 ft | 476 kts | 138° |
| 2026-05-07 19:38 | 46.61025 | 19.39840 | 35008 ft | 476 kts | 138° |
| 2026-05-07 19:39 | 46.58192 | 19.44309 | 35012 ft | 475 kts | 138° |
| 2026-05-07 19:39 | 46.55400 | 19.48707 | 35012 ft | 474 kts | 138° |
| 2026-05-07 19:40 | 46.52358 | 19.53490 | 35012 ft | 474 kts | 138° |
| 2026-05-07 19:40 | 46.47678 | 19.60831 | 35019 ft | 473 kts | 138° |
| 2026-05-07 19:41 | 46.43205 | 19.67828 | 35015 ft | 472 kts | 138° |
| 2026-05-07 19:41 | 46.40244 | 19.72449 | 35014 ft | 472 kts | 138° |
| 2026-05-07 19:42 | 46.35648 | 19.79610 | 35018 ft | 472 kts | 138° |
| 2026-05-07 19:42 | 46.31186 | 19.86543 | 35011 ft | 472 kts | 138° |
| 2026-05-07 19:43 | 46.26710 | 19.93482 | 35012 ft | 472 kts | 138° |
| 2026-05-07 19:43 | 46.23509 | 19.98433 | 35018 ft | 471 kts | 138° |
| 2026-05-07 19:44 | 46.19978 | 20.03887 | 35010 ft | 471 kts | 138° |
| 2026-05-07 19:44 | 46.16315 | 20.09256 | 35002 ft | 467 kts | 144° |
| 2026-05-07 19:45 | 46.12092 | 20.13479 | 35022 ft | 460 kts | 153° |
| 2026-05-07 19:45 | 46.07642 | 20.17364 | 35013 ft | 460 kts | 154° |
| 2026-05-07 19:46 | 46.03291 | 20.21155 | 35003 ft | 461 kts | 154° |
| 2026-05-07 19:46 | 45.98041 | 20.25777 | 35010 ft | 461 kts | 153° |
| 2026-05-07 19:47 | 45.92577 | 20.30620 | 35013 ft | 462 kts | 153° |
| 2026-05-07 19:47 | 45.87110 | 20.35468 | 35011 ft | 462 kts | 153° |
| 2026-05-07 19:48 | 45.81644 | 20.40303 | 35018 ft | 462 kts | 153° |
| 2026-05-07 19:48 | 45.76157 | 20.45143 | 35012 ft | 463 kts | 153° |
| 2026-05-07 19:49 | 45.71565 | 20.49185 | 35015 ft | 463 kts | 153° |
| 2026-05-07 19:49 | 45.67485 | 20.52769 | 35012 ft | 463 kts | 153° |
| 2026-05-07 19:50 | 45.63653 | 20.56130 | 35011 ft | 463 kts | 153° |
| 2026-05-07 19:50 | 45.59947 | 20.59375 | 35010 ft | 463 kts | 153° |
| 2026-05-07 19:51 | 45.55707 | 20.63082 | 35011 ft | 463 kts | 153° |
| 2026-05-07 19:51 | 45.52088 | 20.66240 | 35013 ft | 463 kts | 153° |
| 2026-05-07 19:52 | 45.47876 | 20.69909 | 35017 ft | 463 kts | 153° |
| 2026-05-07 19:52 | 45.43136 | 20.74030 | 35019 ft | 463 kts | 153° |
| 2026-05-07 19:53 | 45.39040 | 20.77585 | 35016 ft | 463 kts | 153° |
| 2026-05-07 19:53 | 45.34871 | 20.81197 | 35016 ft | 463 kts | 153° |
| 2026-05-07 19:54 | 45.30562 | 20.84924 | 35014 ft | 463 kts | 153° |
| 2026-05-07 19:54 | 45.26249 | 20.88648 | 35024 ft | 463 kts | 153° |
| 2026-05-07 19:55 | 45.22320 | 20.92033 | 35027 ft | 464 kts | 153° |
| 2026-05-07 19:55 | 45.18183 | 20.95593 | 35027 ft | 464 kts | 153° |
| 2026-05-07 19:56 | 45.14081 | 20.99117 | 35035 ft | 464 kts | 153° |
| 2026-05-07 19:56 | 45.10157 | 21.02482 | 35036 ft | 464 kts | 153° |
| 2026-05-07 19:57 | 45.05921 | 21.06108 | 35034 ft | 464 kts | 153° |
| 2026-05-07 19:57 | 45.01711 | 21.09706 | 35041 ft | 465 kts | 153° |
| 2026-05-07 19:58 | 44.97041 | 21.13689 | 35041 ft | 465 kts | 153° |
| 2026-05-07 19:58 | 44.92797 | 21.17302 | 35043 ft | 465 kts | 153° |
| 2026-05-07 19:59 | 44.87709 | 21.21626 | 35050 ft | 466 kts | 153° |
| 2026-05-07 19:59 | 44.82246 | 21.26257 | 35034 ft | 467 kts | 153° |
| 2026-05-07 20:00 | 44.77727 | 21.30082 | 35049 ft | 467 kts | 153° |
| 2026-05-07 20:00 | 44.72459 | 21.34531 | 35051 ft | 468 kts | 153° |
| 2026-05-07 20:01 | 44.66866 | 21.39243 | 35053 ft | 469 kts | 153° |
| 2026-05-07 20:01 | 44.61282 | 21.43939 | 35054 ft | 469 kts | 153° |
| 2026-05-07 20:02 | 44.55683 | 21.48635 | 35048 ft | 470 kts | 153° |
| 2026-05-07 20:02 | 44.50118 | 21.53293 | 35056 ft | 470 kts | 153° |
| 2026-05-07 20:03 | 44.44552 | 21.57941 | 35052 ft | 471 kts | 153° |
| 2026-05-07 20:03 | 44.38923 | 21.62631 | 35049 ft | 471 kts | 153° |
| 2026-05-07 20:04 | 44.33289 | 21.67315 | 35057 ft | 472 kts | 153° |
| 2026-05-07 20:04 | 44.27711 | 21.71942 | 35062 ft | 472 kts | 153° |
| 2026-05-07 20:05 | 44.22052 | 21.76625 | 35058 ft | 473 kts | 153° |
| 2026-05-07 20:05 | 44.17441 | 21.80433 | 35060 ft | 473 kts | 153° |
| 2026-05-07 20:06 | 44.13375 | 21.83786 | 35058 ft | 474 kts | 153° |
| 2026-05-07 20:06 | 44.09035 | 21.87358 | 35053 ft | 474 kts | 153° |
| 2026-05-07 20:07 | 44.03382 | 21.92003 | 35064 ft | 474 kts | 153° |
| 2026-05-07 20:07 | 43.97693 | 21.96665 | 35055 ft | 475 kts | 153° |
| 2026-05-07 20:08 | 43.92561 | 22.00862 | 35057 ft | 475 kts | 153° |
| 2026-05-07 20:08 | 43.87747 | 22.04791 | 35062 ft | 476 kts | 153° |
| 2026-05-07 20:09 | 43.83834 | 22.07981 | 35054 ft | 476 kts | 153° |
| 2026-05-07 20:10 | 43.77785 | 22.12901 | 35053 ft | 477 kts | 153° |
| 2026-05-07 20:10 | 43.72056 | 22.17549 | 35050 ft | 478 kts | 153° |
| 2026-05-07 20:11 | 43.66471 | 22.22071 | 35065 ft | 477 kts | 153° |
| 2026-05-07 20:11 | 43.60744 | 22.26698 | 35065 ft | 478 kts | 153° |
| 2026-05-07 20:12 | 43.55168 | 22.31194 | 35071 ft | 479 kts | 153° |
| 2026-05-07 20:12 | 43.49403 | 22.35833 | 35071 ft | 480 kts | 153° |
| 2026-05-07 20:13 | 43.44461 | 22.39918 | 35072 ft | 481 kts | 152° |
| 2026-05-07 20:13 | 43.40271 | 22.43506 | 35067 ft | 482 kts | 152° |
| 2026-05-07 20:14 | 43.36365 | 22.46862 | 35087 ft | 483 kts | 152° |
| 2026-05-07 20:14 | 43.32006 | 22.50582 | 35076 ft | 483 kts | 152° |
| 2026-05-07 20:15 | 43.27426 | 22.54466 | 35078 ft | 483 kts | 152° |
| 2026-05-07 20:15 | 43.23197 | 22.58038 | 35090 ft | 483 kts | 152° |
| 2026-05-07 20:16 | 43.18462 | 22.62031 | 35091 ft | 483 kts | 152° |
| 2026-05-07 20:16 | 43.12740 | 22.66848 | 35092 ft | 483 kts | 152° |
| 2026-05-07 20:17 | 43.07020 | 22.71654 | 35099 ft | 484 kts | 152° |
| 2026-05-07 20:17 | 43.01635 | 22.76171 | 35093 ft | 484 kts | 152° |
| 2026-05-07 20:18 | 42.97084 | 22.80111 | 35097 ft | 487 kts | 147° |
| 2026-05-07 20:18 | 42.91879 | 22.86397 | 35096 ft | 491 kts | 140° |
| 2026-05-07 20:19 | 42.87222 | 22.92431 | 35105 ft | 492 kts | 140° |
| 2026-05-07 20:19 | 42.84166 | 22.96367 | 35093 ft | 492 kts | 140° |
| 2026-05-07 20:20 | 42.78912 | 23.03045 | 35101 ft | 492 kts | 140° |
| 2026-05-07 20:20 | 42.74001 | 23.09223 | 35105 ft | 492 kts | 140° |
| 2026-05-07 20:21 | 42.71050 | 23.12923 | 35098 ft | 493 kts | 140° |
| 2026-05-07 20:21 | 42.65548 | 23.19810 | 35101 ft | 494 kts | 140° |
| 2026-05-07 20:22 | 42.61418 | 23.24970 | 35123 ft | 494 kts | 140° |
| 2026-05-07 20:22 | 42.55905 | 23.31847 | 35109 ft | 495 kts | 141° |
| 2026-05-07 20:23 | 42.50821 | 23.38173 | 35114 ft | 495 kts | 141° |
| 2026-05-07 20:23 | 42.45742 | 23.44480 | 35107 ft | 496 kts | 141° |
| 2026-05-07 20:24 | 42.41619 | 23.49588 | 35115 ft | 497 kts | 141° |
| 2026-05-07 20:24 | 42.37006 | 23.55293 | 35119 ft | 498 kts | 141° |
| 2026-05-07 20:25 | 42.32549 | 23.60792 | 35126 ft | 499 kts | 141° |
| 2026-05-07 20:25 | 42.27915 | 23.66499 | 35122 ft | 499 kts | 141° |
| 2026-05-07 20:26 | 42.23540 | 23.71875 | 35114 ft | 501 kts | 141° |
| 2026-05-07 20:26 | 42.18862 | 23.77612 | 35109 ft | 501 kts | 141° |
| 2026-05-07 20:27 | 42.14347 | 23.83140 | 35114 ft | 501 kts | 141° |
| 2026-05-07 20:27 | 42.09782 | 23.88716 | 35114 ft | 502 kts | 141° |
| 2026-05-07 20:28 | 42.04547 | 23.95097 | 35110 ft | 502 kts | 141° |
| 2026-05-07 20:28 | 42.00955 | 23.99467 | 35111 ft | 502 kts | 141° |
| 2026-05-07 20:29 | 41.95767 | 24.05765 | 35115 ft | 502 kts | 141° |
| 2026-05-07 20:29 | 41.90572 | 24.12057 | 35115 ft | 503 kts | 141° |
| 2026-05-07 20:30 | 41.85367 | 24.18348 | 35114 ft | 504 kts | 141° |
| 2026-05-07 20:30 | 41.80155 | 24.24633 | 35114 ft | 504 kts | 141° |
| 2026-05-07 20:31 | 41.74931 | 24.30917 | 35116 ft | 505 kts | 141° |
| 2026-05-07 20:31 | 41.69704 | 24.37191 | 35117 ft | 505 kts | 142° |
| 2026-05-07 20:32 | 41.64465 | 24.43466 | 35118 ft | 506 kts | 142° |
| 2026-05-07 20:32 | 41.59243 | 24.49707 | 35126 ft | 507 kts | 142° |
| 2026-05-07 20:33 | 41.53969 | 24.55995 | 35127 ft | 508 kts | 142° |
| 2026-05-07 20:33 | 41.48688 | 24.62278 | 35134 ft | 509 kts | 142° |
| 2026-05-07 20:34 | 41.43391 | 24.68568 | 35136 ft | 511 kts | 142° |
| 2026-05-07 20:34 | 41.38160 | 24.75004 | 35124 ft | 513 kts | 139° |
| 2026-05-07 20:35 | 41.33083 | 24.81727 | 35122 ft | 515 kts | 137° |
| 2026-05-07 20:35 | 41.28016 | 24.88451 | 35112 ft | 514 kts | 138° |
| 2026-05-07 20:36 | 41.22907 | 24.95135 | 35123 ft | 516 kts | 139° |
| 2026-05-07 20:36 | 41.17767 | 25.01800 | 35106 ft | 517 kts | 139° |
| 2026-05-07 20:37 | 41.12636 | 25.08434 | 35108 ft | 518 kts | 139° |
| 2026-05-07 20:37 | 41.07457 | 25.15118 | 35117 ft | 519 kts | 139° |
| 2026-05-07 20:38 | 41.02277 | 25.21792 | 35112 ft | 520 kts | 139° |
| 2026-05-07 20:38 | 40.97081 | 25.28471 | 35112 ft | 521 kts | 139° |
| 2026-05-07 20:39 | 40.91872 | 25.35151 | 35113 ft | 522 kts | 139° |
| 2026-05-07 20:39 | 40.86655 | 25.41826 | 35115 ft | 522 kts | 139° |
| 2026-05-07 20:40 | 40.81433 | 25.48491 | 35112 ft | 522 kts | 139° |
| 2026-05-07 20:40 | 40.76241 | 25.55103 | 35112 ft | 522 kts | 139° |
| 2026-05-07 20:41 | 40.71004 | 25.61757 | 35113 ft | 523 kts | 139° |
| 2026-05-07 20:41 | 40.65761 | 25.68404 | 35113 ft | 523 kts | 139° |
| 2026-05-07 20:42 | 40.60507 | 25.75050 | 35110 ft | 523 kts | 139° |
| 2026-05-07 20:42 | 40.55249 | 25.81688 | 35110 ft | 524 kts | 139° |
| 2026-05-07 20:43 | 40.49991 | 25.88328 | 35115 ft | 525 kts | 137° |
| 2026-05-07 20:43 | 40.45061 | 25.95426 | 35115 ft | 526 kts | 133° |
| 2026-05-07 20:44 | 40.40285 | 26.02728 | 35119 ft | 527 kts | 132° |
| 2026-05-07 20:44 | 40.35474 | 26.10003 | 35123 ft | 528 kts | 133° |
| 2026-05-07 20:45 | 40.30622 | 26.17229 | 35138 ft | 529 kts | 133° |
| 2026-05-07 20:45 | 40.25777 | 26.24407 | 35146 ft | 529 kts | 133° |
| 2026-05-07 20:46 | 40.20891 | 26.31637 | 35156 ft | 530 kts | 133° |
| 2026-05-07 20:46 | 40.16001 | 26.38864 | 35157 ft | 530 kts | 133° |
| 2026-05-07 20:47 | 40.11027 | 26.45952 | 35158 ft | 529 kts | 136° |
| 2026-05-07 20:47 | 40.05796 | 26.52629 | 35154 ft | 529 kts | 138° |
| 2026-05-07 20:48 | 40.00492 | 26.59280 | 35149 ft | 528 kts | 137° |
| 2026-05-07 20:48 | 39.95228 | 26.65966 | 35154 ft | 528 kts | 137° |
| 2026-05-07 20:49 | 39.89981 | 26.72668 | 35144 ft | 528 kts | 137° |
| 2026-05-07 20:49 | 39.84733 | 26.79356 | 35153 ft | 528 kts | 137° |
| 2026-05-07 20:50 | 39.79480 | 26.86028 | 35154 ft | 527 kts | 137° |
| 2026-05-07 20:50 | 39.74210 | 26.92663 | 35166 ft | 527 kts | 138° |
| 2026-05-07 20:51 | 39.68881 | 26.99196 | 35166 ft | 526 kts | 138° |
| 2026-05-07 20:51 | 39.63580 | 27.05669 | 35158 ft | 526 kts | 138° |
| 2026-05-07 20:52 | 39.58260 | 27.12183 | 35158 ft | 525 kts | 138° |
| 2026-05-07 20:52 | 39.52946 | 27.18683 | 35166 ft | 525 kts | 138° |
| 2026-05-07 20:53 | 39.47827 | 27.25437 | 35155 ft | 525 kts | 130° |
| 2026-05-07 20:53 | 39.43247 | 27.32793 | 35172 ft | 524 kts | 129° |
| 2026-05-07 20:54 | 39.38656 | 27.40107 | 35175 ft | 523 kts | 130° |
| 2026-05-07 20:54 | 39.34009 | 27.47353 | 35184 ft | 523 kts | 130° |
| 2026-05-07 20:55 | 39.29366 | 27.54564 | 35173 ft | 522 kts | 130° |
| 2026-05-07 20:55 | 39.24730 | 27.61761 | 35176 ft | 520 kts | 130° |
| 2026-05-07 20:56 | 39.20109 | 27.68922 | 35181 ft | 518 kts | 130° |
| 2026-05-07 20:56 | 39.15528 | 27.76005 | 35180 ft | 517 kts | 130° |
| 2026-05-07 20:57 | 39.10929 | 27.83103 | 35177 ft | 515 kts | 130° |
| 2026-05-07 20:57 | 39.06335 | 27.90172 | 35178 ft | 514 kts | 130° |
| 2026-05-07 20:58 | 39.01745 | 27.97213 | 35184 ft | 512 kts | 130° |
| 2026-05-07 20:58 | 38.97169 | 28.04219 | 35166 ft | 511 kts | 130° |
| 2026-05-07 20:59 | 38.92604 | 28.11196 | 35177 ft | 509 kts | 130° |
| 2026-05-07 20:59 | 38.88050 | 28.18143 | 35177 ft | 508 kts | 130° |
| 2026-05-07 21:00 | 38.83496 | 28.25072 | 35189 ft | 507 kts | 130° |
| 2026-05-07 21:00 | 38.78940 | 28.31989 | 35200 ft | 508 kts | 130° |
| 2026-05-07 21:01 | 38.74397 | 28.38873 | 35205 ft | 510 kts | 131° |
| 2026-05-07 21:01 | 38.69810 | 28.45809 | 35204 ft | 511 kts | 131° |
| 2026-05-07 21:02 | 38.65218 | 28.52738 | 35192 ft | 511 kts | 131° |
| 2026-05-07 21:02 | 38.60620 | 28.59662 | 35198 ft | 510 kts | 131° |
| 2026-05-07 21:03 | 38.55540 | 28.65925 | 35202 ft | 506 kts | 146° |
| 2026-05-07 21:03 | 38.49760 | 28.71035 | 35196 ft | 505 kts | 148° |
| 2026-05-07 21:04 | 38.43955 | 28.76094 | 35206 ft | 505 kts | 147° |
| 2026-05-07 21:04 | 38.38176 | 28.81209 | 35196 ft | 506 kts | 147° |
| 2026-05-07 21:05 | 38.32408 | 28.86354 | 35204 ft | 506 kts | 147° |
| 2026-05-07 21:05 | 38.26670 | 28.91469 | 35201 ft | 506 kts | 147° |
| 2026-05-07 21:06 | 38.20898 | 28.96598 | 35202 ft | 506 kts | 147° |
| 2026-05-07 21:06 | 38.15121 | 29.01719 | 35207 ft | 506 kts | 147° |
| 2026-05-07 21:07 | 38.09348 | 29.06826 | 35208 ft | 506 kts | 147° |
| 2026-05-07 21:07 | 38.03593 | 29.11907 | 35202 ft | 506 kts | 147° |
| 2026-05-07 21:08 | 37.98765 | 29.16163 | 35207 ft | 506 kts | 147° |
| 2026-05-07 21:08 | 37.92359 | 29.21800 | 35208 ft | 505 kts | 147° |
| 2026-05-07 21:09 | 37.86574 | 29.26880 | 35211 ft | 505 kts | 147° |
| 2026-05-07 21:09 | 37.80790 | 29.31945 | 35211 ft | 505 kts | 147° |
| 2026-05-07 21:10 | 37.75957 | 29.36166 | 35225 ft | 505 kts | 147° |
| 2026-05-07 21:10 | 37.70412 | 29.41002 | 35219 ft | 504 kts | 147° |
| 2026-05-07 21:11 | 37.65010 | 29.45706 | 35218 ft | 504 kts | 147° |
| 2026-05-07 21:11 | 37.57596 | 29.52151 | 35224 ft | 504 kts | 147° |
| 2026-05-07 21:12 | 37.52118 | 29.56902 | 35222 ft | 503 kts | 147° |
| 2026-05-07 21:12 | 37.46396 | 29.61855 | 35237 ft | 503 kts | 147° |
| 2026-05-07 21:13 | 37.40761 | 29.66725 | 35231 ft | 503 kts | 147° |
| 2026-05-07 21:13 | 37.35064 | 29.71640 | 35235 ft | 503 kts | 147° |
| 2026-05-07 21:14 | 37.29411 | 29.76517 | 35231 ft | 503 kts | 147° |
| 2026-05-07 21:14 | 37.24106 | 29.81099 | 35230 ft | 503 kts | 147° |
| 2026-05-07 21:15 | 37.18402 | 29.86017 | 35227 ft | 503 kts | 147° |
| 2026-05-07 21:15 | 37.12619 | 29.90994 | 35224 ft | 503 kts | 147° |
| 2026-05-07 21:16 | 37.06847 | 29.95936 | 35226 ft | 503 kts | 147° |
| 2026-05-07 21:16 | 37.01300 | 30.00661 | 35225 ft | 503 kts | 147° |
| 2026-05-07 21:17 | 36.95930 | 30.05229 | 35214 ft | 504 kts | 147° |
| 2026-05-07 21:17 | 36.90138 | 30.10154 | 35218 ft | 503 kts | 147° |
| 2026-05-07 21:18 | 36.84351 | 30.15063 | 35207 ft | 503 kts | 147° |
| 2026-05-07 21:18 | 36.78631 | 30.19914 | 35211 ft | 503 kts | 146° |
| 2026-05-07 21:19 | 36.73378 | 30.24365 | 35195 ft | 503 kts | 146° |
| 2026-05-07 21:19 | 36.68414 | 30.28566 | 35180 ft | 503 kts | 146° |
| 2026-05-07 21:20 | 36.62623 | 30.33459 | 35176 ft | 502 kts | 147° |
| 2026-05-07 21:20 | 36.56976 | 30.38221 | 35173 ft | 502 kts | 146° |
| 2026-05-07 21:21 | 36.51647 | 30.42706 | 35146 ft | 501 kts | 147° |
| 2026-05-07 21:21 | 36.45892 | 30.47541 | 35159 ft | 499 kts | 147° |
| 2026-05-07 21:22 | 36.40133 | 30.52371 | 35146 ft | 499 kts | 147° |
| 2026-05-07 21:22 | 36.34388 | 30.57180 | 35142 ft | 498 kts | 147° |
| 2026-05-07 21:23 | 36.28639 | 30.61986 | 35134 ft | 498 kts | 147° |
| 2026-05-07 21:23 | 36.22881 | 30.66789 | 35133 ft | 498 kts | 147° |
| 2026-05-07 21:24 | 36.17375 | 30.71374 | 35133 ft | 499 kts | 147° |
| 2026-05-07 21:24 | 36.11537 | 30.76227 | 35135 ft | 499 kts | 147° |
| 2026-05-07 21:25 | 36.05799 | 30.80990 | 35136 ft | 499 kts | 147° |
| 2026-05-07 21:25 | 36.00245 | 30.85998 | 35135 ft | 499 kts | 142° |
| 2026-05-07 21:26 | 35.94880 | 30.91355 | 35134 ft | 499 kts | 141° |
| 2026-05-07 21:26 | 35.89471 | 30.96792 | 35133 ft | 499 kts | 141° |
| 2026-05-07 21:27 | 35.84285 | 31.01936 | 35133 ft | 499 kts | 141° |
| 2026-05-07 21:27 | 35.78960 | 31.07170 | 35137 ft | 498 kts | 142° |
| 2026-05-07 21:28 | 35.73651 | 31.12368 | 35137 ft | 498 kts | 142° |
| 2026-05-07 21:28 | 35.68358 | 31.17545 | 35134 ft | 498 kts | 142° |
| 2026-05-07 21:29 | 35.63046 | 31.22733 | 35138 ft | 498 kts | 142° |
| 2026-05-07 21:29 | 35.57723 | 31.27924 | 35141 ft | 498 kts | 142° |
| 2026-05-07 21:30 | 35.52415 | 31.33091 | 35139 ft | 497 kts | 142° |
| 2026-05-07 21:30 | 35.47018 | 31.38336 | 35136 ft | 497 kts | 142° |
| 2026-05-07 21:31 | 35.42625 | 31.42599 | 35137 ft | 497 kts | 142° |
| 2026-05-07 21:31 | 35.37804 | 31.47269 | 35141 ft | 496 kts | 142° |
| 2026-05-07 21:32 | 35.33182 | 31.51740 | 35139 ft | 496 kts | 142° |
| 2026-05-07 21:32 | 35.28105 | 31.56643 | 35142 ft | 496 kts | 142° |
| 2026-05-07 21:33 | 35.23713 | 31.60878 | 35143 ft | 496 kts | 142° |
| 2026-05-07 21:33 | 35.19165 | 31.65257 | 35141 ft | 495 kts | 142° |
| 2026-05-07 21:34 | 35.14165 | 31.70064 | 35138 ft | 495 kts | 142° |
| 2026-05-07 21:34 | 35.08755 | 31.75256 | 35137 ft | 495 kts | 142° |
| 2026-05-07 21:35 | 35.03530 | 31.80263 | 35139 ft | 494 kts | 142° |
| 2026-05-07 21:35 | 34.98115 | 31.85442 | 35139 ft | 494 kts | 142° |
| 2026-05-07 21:36 | 34.93092 | 31.90239 | 35139 ft | 494 kts | 142° |
| 2026-05-07 21:36 | 34.87999 | 31.95095 | 35138 ft | 494 kts | 142° |
| 2026-05-07 21:37 | 34.83316 | 31.99552 | 35138 ft | 494 kts | 142° |
| 2026-05-07 21:37 | 34.78285 | 32.04334 | 35138 ft | 494 kts | 142° |
| 2026-05-07 21:38 | 34.73207 | 32.09153 | 35134 ft | 494 kts | 142° |
| 2026-05-07 21:38 | 34.67965 | 32.14120 | 35131 ft | 494 kts | 142° |
| 2026-05-07 21:39 | 34.62904 | 32.18907 | 35131 ft | 494 kts | 142° |
| 2026-05-07 21:39 | 34.57529 | 32.23982 | 35130 ft | 494 kts | 142° |
| 2026-05-07 21:40 | 34.52088 | 32.29112 | 35127 ft | 494 kts | 142° |
| 2026-05-07 21:40 | 34.46663 | 32.34218 | 35123 ft | 495 kts | 142° |
| 2026-05-07 21:41 | 34.41229 | 32.39323 | 35121 ft | 495 kts | 142° |
| 2026-05-07 21:41 | 34.35774 | 32.44441 | 35118 ft | 495 kts | 142° |
| 2026-05-07 21:42 | 34.30804 | 32.49095 | 35118 ft | 495 kts | 142° |
| 2026-05-07 21:42 | 34.25221 | 32.54315 | 35118 ft | 495 kts | 142° |
| 2026-05-07 21:43 | 34.19922 | 32.59262 | 35117 ft | 495 kts | 143° |
| 2026-05-07 21:43 | 34.14457 | 32.64356 | 35117 ft | 495 kts | 142° |
| 2026-05-07 21:44 | 34.09189 | 32.69257 | 35117 ft | 495 kts | 143° |
| 2026-05-07 21:44 | 34.03622 | 32.73760 | 35124 ft | 495 kts | 149° |
| 2026-05-07 21:45 | 33.99161 | 32.77020 | 35117 ft | 495 kts | 150° |
| 2026-05-07 21:45 | 33.92667 | 32.81736 | 35116 ft | 495 kts | 149° |
| 2026-05-07 21:46 | 33.88324 | 32.84932 | 35119 ft | 495 kts | 149° |
| 2026-05-07 21:46 | 33.83466 | 32.88536 | 35115 ft | 495 kts | 149° |
| 2026-05-07 21:47 | 33.78607 | 32.92147 | 35120 ft | 495 kts | 149° |
| 2026-05-07 21:47 | 33.73151 | 32.96195 | 35115 ft | 495 kts | 149° |
| 2026-05-07 21:48 | 33.67418 | 33.00438 | 35119 ft | 495 kts | 149° |
| 2026-05-07 21:48 | 33.61574 | 33.04755 | 35118 ft | 495 kts | 149° |
| 2026-05-07 21:49 | 33.55921 | 33.08923 | 35117 ft | 495 kts | 149° |
| 2026-05-07 21:49 | 33.50836 | 33.12668 | 35118 ft | 495 kts | 149° |
| 2026-05-07 21:50 | 33.46436 | 33.15904 | 35119 ft | 495 kts | 149° |
| 2026-05-07 21:50 | 33.42091 | 33.19097 | 35122 ft | 495 kts | 149° |
| 2026-05-07 21:51 | 33.36670 | 33.23073 | 34600 ft | 501 kts | 149° |
| 2026-05-07 21:51 | 33.33746 | 33.25216 | 34033 ft | 497 kts | 149° |
| 2026-05-07 21:51 | 33.30791 | 33.27380 | 33163 ft | 499 kts | 149° |
| 2026-05-07 21:52 | 33.27828 | 33.29547 | 32417 ft | 498 kts | 148° |
| 2026-05-07 21:52 | 33.24862 | 33.31715 | 31658 ft | 498 kts | 148° |
| 2026-05-07 21:52 | 33.22067 | 33.33757 | 30926 ft | 498 kts | 148° |
| 2026-05-07 21:52 | 33.19017 | 33.35983 | 30098 ft | 499 kts | 148° |
| 2026-05-07 21:53 | 33.16049 | 33.38148 | 29137 ft | 500 kts | 148° |
| 2026-05-07 21:53 | 33.13197 | 33.40227 | 28242 ft | 501 kts | 148° |
| 2026-05-07 21:53 | 33.10794 | 33.41977 | 27484 ft | 501 kts | 148° |
| 2026-05-07 21:53 | 33.08518 | 33.43633 | 27014 ft | 496 kts | 148° |
| 2026-05-07 21:54 | 33.06334 | 33.45222 | 26525 ft | 492 kts | 149° |
| 2026-05-07 21:54 | 33.04166 | 33.46798 | 25986 ft | 489 kts | 149° |
| 2026-05-07 21:54 | 33.01895 | 33.48448 | 25500 ft | 485 kts | 149° |
| 2026-05-07 21:54 | 32.99090 | 33.50485 | 24871 ft | 481 kts | 149° |
| 2026-05-07 21:55 | 32.96255 | 33.52541 | 24238 ft | 476 kts | 149° |
| 2026-05-07 21:55 | 32.93591 | 33.54473 | 23609 ft | 473 kts | 149° |
| 2026-05-07 21:55 | 32.90649 | 33.56604 | 22831 ft | 469 kts | 149° |
| 2026-05-07 21:55 | 32.87881 | 33.58608 | 22163 ft | 464 kts | 149° |
| 2026-05-07 21:56 | 32.85144 | 33.60588 | 21522 ft | 459 kts | 149° |
| 2026-05-07 21:56 | 32.82596 | 33.62585 | 20915 ft | 455 kts | 143° |
| 2026-05-07 21:56 | 32.80303 | 33.64997 | 20313 ft | 451 kts | 134° |
| 2026-05-07 21:56 | 32.78085 | 33.67774 | 19688 ft | 446 kts | 133° |
| 2026-05-07 21:57 | 32.75963 | 33.70466 | 19065 ft | 443 kts | 133° |
| 2026-05-07 21:57 | 32.73866 | 33.73112 | 18438 ft | 440 kts | 133° |
| 2026-05-07 21:57 | 32.71764 | 33.75741 | 17751 ft | 437 kts | 134° |
| 2026-05-07 21:57 | 32.69667 | 33.78341 | 17111 ft | 433 kts | 134° |
| 2026-05-07 21:58 | 32.67588 | 33.80906 | 16423 ft | 430 kts | 134° |
| 2026-05-07 21:58 | 32.65536 | 33.83431 | 15803 ft | 427 kts | 134° |
| 2026-05-07 21:58 | 32.63510 | 33.85920 | 15201 ft | 423 kts | 134° |
| 2026-05-07 21:58 | 32.61542 | 33.88339 | 14596 ft | 420 kts | 134° |
| 2026-05-07 21:59 | 32.59849 | 33.90420 | 14109 ft | 417 kts | 135° |
| 2026-05-07 21:59 | 32.58134 | 33.92525 | 13533 ft | 415 kts | 135° |
| 2026-05-07 21:59 | 32.56232 | 33.94858 | 12954 ft | 411 kts | 135° |
| 2026-05-07 21:59 | 32.54459 | 33.97052 | 12701 ft | 400 kts | 134° |
| 2026-05-07 22:00 | 32.52561 | 33.99421 | 12403 ft | 392 kts | 134° |
| 2026-05-07 22:00 | 32.50696 | 34.01754 | 12100 ft | 390 kts | 134° |
| 2026-05-07 22:00 | 32.49097 | 34.03753 | 11844 ft | 383 kts | 134° |
| 2026-05-07 22:00 | 32.47744 | 34.05442 | 11640 ft | 376 kts | 134° |
| 2026-05-07 22:01 | 32.46140 | 34.07442 | 11389 ft | 368 kts | 134° |
| 2026-05-07 22:01 | 32.44618 | 34.09335 | 11159 ft | 361 kts | 134° |
| 2026-05-07 22:01 | 32.43238 | 34.11052 | 10943 ft | 355 kts | 134° |
| 2026-05-07 22:01 | 32.42005 | 34.12758 | 10721 ft | 350 kts | 128° |
| 2026-05-07 22:02 | 32.40765 | 34.14863 | 10508 ft | 344 kts | 124° |
| 2026-05-07 22:02 | 32.39479 | 34.17220 | 10256 ft | 338 kts | 123° |
| 2026-05-07 22:02 | 32.38253 | 34.19471 | 10016 ft | 332 kts | 124° |
| 2026-05-07 22:02 | 32.37247 | 34.21288 | 9931 ft | 323 kts | 124° |
| 2026-05-07 22:03 | 32.36150 | 34.23237 | 9933 ft | 310 kts | 125° |
| 2026-05-07 22:03 | 32.35316 | 34.24702 | 9916 ft | 301 kts | 125° |
| 2026-05-07 22:03 | 32.34158 | 34.26724 | 9721 ft | 295 kts | 125° |
| 2026-05-07 22:03 | 32.33017 | 34.28711 | 9497 ft | 290 kts | 125° |
| 2026-05-07 22:04 | 32.31883 | 34.30682 | 9162 ft | 290 kts | 125° |
| 2026-05-07 22:04 | 32.30758 | 34.32635 | 8925 ft | 286 kts | 125° |
| 2026-05-07 22:04 | 32.29631 | 34.34589 | 8582 ft | 287 kts | 125° |
| 2026-05-07 22:04 | 32.28518 | 34.36520 | 8355 ft | 283 kts | 125° |
| 2026-05-07 22:05 | 32.27418 | 34.38429 | 8078 ft | 281 kts | 124° |
| 2026-05-07 22:05 | 32.26355 | 34.40273 | 7781 ft | 280 kts | 124° |
| 2026-05-07 22:05 | 32.25293 | 34.42113 | 7594 ft | 276 kts | 124° |
| 2026-05-07 22:05 | 32.24208 | 34.43990 | 7265 ft | 277 kts | 124° |
| 2026-05-07 22:06 | 32.23131 | 34.45855 | 7029 ft | 273 kts | 124° |
| 2026-05-07 22:06 | 32.22053 | 34.47714 | 6649 ft | 274 kts | 124° |
| 2026-05-07 22:06 | 32.20984 | 34.49556 | 6325 ft | 271 kts | 124° |
| 2026-05-07 22:06 | 32.19916 | 34.51396 | 5989 ft | 272 kts | 124° |
| 2026-05-07 22:07 | 32.18844 | 34.53242 | 5658 ft | 273 kts | 123° |
| 2026-05-07 22:07 | 32.17770 | 34.55089 | 5346 ft | 273 kts | 123° |
| 2026-05-07 22:07 | 32.16692 | 34.56942 | 5033 ft | 273 kts | 123° |
| 2026-05-07 22:07 | 32.15680 | 34.58833 | 4741 ft | 272 kts | 119° |
| 2026-05-07 22:08 | 32.14768 | 34.60781 | 4451 ft | 271 kts | 116° |
| 2026-05-07 22:08 | 32.13852 | 34.62692 | 4328 ft | 263 kts | 118° |
| 2026-05-07 22:08 | 32.12906 | 34.64549 | 4001 ft | 264 kts | 119° |
| 2026-05-07 22:08 | 32.11971 | 34.66344 | 3929 ft | 250 kts | 119° |
| 2026-05-07 22:09 | 32.11080 | 34.68053 | 3701 ft | 240 kts | 119° |
| 2026-05-07 22:09 | 32.10218 | 34.69711 | 3404 ft | 234 kts | 119° |
| 2026-05-07 22:09 | 32.09378 | 34.71330 | 3101 ft | 229 kts | 118° |
| 2026-05-07 22:09 | 32.08561 | 34.72903 | 2791 ft | 220 kts | 118° |
| 2026-05-07 22:10 | 32.07789 | 34.74390 | 2517 ft | 206 kts | 117° |
| 2026-05-07 22:10 | 32.07065 | 34.75784 | 2258 ft | 192 kts | 117° |
| 2026-05-07 22:10 | 32.06388 | 34.77092 | 2003 ft | 181 kts | 118° |
| 2026-05-07 22:10 | 32.05762 | 34.78299 | 1770 ft | 166 kts | 118° |
| 2026-05-07 22:11 | 32.05185 | 34.79413 | 1556 ft | 162 kts | 117° |
| 2026-05-07 22:11 | 32.04597 | 34.80551 | 1338 ft | 163 kts | 118° |
| 2026-05-07 22:11 | 32.04001 | 34.81705 | 1020 ft | 166 kts | 119° |
| 2026-05-07 22:11 | 32.03402 | 34.82843 | 764 ft | 163 kts | 120° |
| 2026-05-07 22:12 | 32.02827 | 34.83958 | 621 ft | 156 kts | 120° |
| 2026-05-07 22:12 | 32.02254 | 34.85055 | 409 ft | 160 kts | 120° |
| 2026-05-07 22:12 | 32.01685 | 34.86159 | 230 ft | 155 kts | 120° |
| 2026-05-07 22:12 | 32.01145 | 34.87206 | 123 ft | 140 kts | 120° |
| 2026-05-07 22:13 | 32.00737 | 34.87999 | 116 ft | 82 kts | 122° |
| 2026-05-07 22:13 | 32.00552 | 34.88354 | 118 ft | 25 kts | 122° |
| 2026-05-07 22:13 | 32.00456 | 34.88518 | 118 ft | 24 kts | 134° |
| 2026-05-07 22:13 | 32.00329 | 34.88632 | 119 ft | 23 kts | 148° |
| 2026-05-07 22:14 | 32.00192 | 34.88698 | 116 ft | 20 kts | 165° |
| 2026-05-07 22:14 | 32.00103 | 34.88633 | 119 ft | 18 kts | 279° |
| 2026-05-07 22:14 | 32.00166 | 34.88507 | 116 ft | 18 kts | 302° |
| 2026-05-07 22:14 | 32.00229 | 34.88387 | 118 ft | 17 kts | 301° |
| 2026-05-07 22:15 | 32.00290 | 34.88271 | 117 ft | 16 kts | 301° |
| 2026-05-07 22:15 | 32.00348 | 34.88159 | 117 ft | 16 kts | 301° |
| 2026-05-07 22:15 | 32.00404 | 34.88052 | 118 ft | 15 kts | 301° |
| 2026-05-07 22:15 | 32.00458 | 34.87949 | 116 ft | 14 kts | 301° |
| 2026-05-07 22:16 | 32.00481 | 34.87846 | 119 ft | 14 kts | 234° |
| 2026-05-07 22:16 | 32.00401 | 34.87784 | 117 ft | 13 kts | 212° |
| 2026-05-07 22:16 | 32.00368 | 34.87718 | 119 ft | 8 kts | 270° |
| 2026-05-07 22:16 | 32.00370 | 34.87660 | 119 ft | 3 kts | 272° |
| 2026-05-07 22:17 | 32.00371 | 34.87637 | 119 ft | 1 kts | 272° |
| 2026-05-07 22:17 | 32.00371 | 34.87628 | 119 ft | 0 kts | 272° |